<?xml version="1.0" encoding="UTF-8" standalone="no" ?>
<gpx xmlns="http://www.topografix.com/GPX/1/1" xmlns:xsi="http://www.w3.org/2001/XMLSchema-instance" xsi:schemaLocation="http://www.topografix.com/GPX/1/1 http://www.topografix.com/GPX/1/1/gpx.xsd" version="1.1" creator="VisuGPX - https://www.visugpx.com">
  <metadata>
    <name>Riotor-Lalouvesc</name>
    <desc><![CDATA[Parcours entre le gîte de Combalou à Riotord et le gîte domaine de Fontcouverte à Lalouvesc.]]></desc>
  </metadata>
  <trk>
    <name><![CDATA[20180411142610-fsa3v]]></name>
    <trkseg>
      <trkpt lat="45.12652" lon="4.53592">
        <ele>1135</ele>
        <time>2018-04-11T09:16:34Z</time>
      </trkpt>
      <trkpt lat="45.12785" lon="4.53582">
        <ele>1154</ele>
        <time>2018-04-11T09:17:34Z</time>
      </trkpt>
      <trkpt lat="45.12899" lon="4.53532">
        <ele>1169</ele>
        <time>2018-04-11T09:18:34Z</time>
      </trkpt>
      <trkpt lat="45.13042" lon="4.53531">
        <ele>1181</ele>
        <time>2018-04-11T09:19:34Z</time>
      </trkpt>
      <trkpt lat="45.13083" lon="4.53421">
        <ele>1189</ele>
        <time>2018-04-11T09:20:34Z</time>
      </trkpt>
      <trkpt lat="45.13084" lon="4.53126">
        <ele>1194</ele>
        <time>2018-04-11T09:21:34Z</time>
      </trkpt>
      <trkpt lat="45.1312" lon="4.52863">
        <ele>1186</ele>
        <time>2018-04-11T09:22:34Z</time>
      </trkpt>
      <trkpt lat="45.13141" lon="4.52812">
        <ele>1184</ele>
        <time>2018-04-11T09:23:34Z</time>
      </trkpt>
      <trkpt lat="45.13198" lon="4.52665">
        <ele>1183</ele>
        <time>2018-04-11T09:24:34Z</time>
      </trkpt>
      <trkpt lat="45.13256" lon="4.52653">
        <ele>1193</ele>
        <time>2018-04-11T09:25:34Z</time>
      </trkpt>
      <trkpt lat="45.13274" lon="4.52612">
        <ele>1191</ele>
        <time>2018-04-11T09:26:34Z</time>
      </trkpt>
      <trkpt lat="45.13476" lon="4.52632">
        <ele>1192</ele>
        <time>2018-04-11T09:27:34Z</time>
      </trkpt>
      <trkpt lat="45.13569" lon="4.5265">
        <ele>1196</ele>
        <time>2018-04-11T09:28:34Z</time>
      </trkpt>
      <trkpt lat="45.13648" lon="4.52704">
        <ele>1209</ele>
        <time>2018-04-11T09:29:34Z</time>
      </trkpt>
      <trkpt lat="45.13684" lon="4.52773">
        <ele>1217</ele>
        <time>2018-04-11T09:30:34Z</time>
      </trkpt>
      <trkpt lat="45.13756" lon="4.52808">
        <ele>1224</ele>
        <time>2018-04-11T09:31:34Z</time>
      </trkpt>
      <trkpt lat="45.13818" lon="4.5278">
        <ele>1228</ele>
        <time>2018-04-11T09:32:34Z</time>
      </trkpt>
      <trkpt lat="45.13902" lon="4.52808">
        <ele>1235</ele>
        <time>2018-04-11T09:33:34Z</time>
      </trkpt>
      <trkpt lat="45.13931" lon="4.52742">
        <ele>1235</ele>
        <time>2018-04-11T09:34:34Z</time>
      </trkpt>
      <trkpt lat="45.13989" lon="4.52625">
        <ele>1233</ele>
        <time>2018-04-11T09:35:34Z</time>
      </trkpt>
      <trkpt lat="45.14023" lon="4.52494">
        <ele>1233</ele>
        <time>2018-04-11T09:36:34Z</time>
      </trkpt>
      <trkpt lat="45.1408" lon="4.52346">
        <ele>1247</ele>
        <time>2018-04-11T09:37:34Z</time>
      </trkpt>
      <trkpt lat="45.14124" lon="4.52214">
        <ele>1244</ele>
        <time>2018-04-11T09:38:34Z</time>
      </trkpt>
      <trkpt lat="45.14188" lon="4.52119">
        <ele>1241</ele>
        <time>2018-04-11T09:39:34Z</time>
      </trkpt>
      <trkpt lat="45.14329" lon="4.52068">
        <ele>1249</ele>
        <time>2018-04-11T09:40:34Z</time>
      </trkpt>
      <trkpt lat="45.14445" lon="4.51983">
        <ele>1248</ele>
        <time>2018-04-11T09:41:34Z</time>
      </trkpt>
      <trkpt lat="45.14657" lon="4.51828">
        <ele>1229</ele>
        <time>2018-04-11T09:42:34Z</time>
      </trkpt>
      <trkpt lat="45.14691" lon="4.51768">
        <ele>1226</ele>
        <time>2018-04-11T09:43:34Z</time>
      </trkpt>
      <trkpt lat="45.14736" lon="4.51798">
        <ele>1226</ele>
        <time>2018-04-11T09:44:34Z</time>
      </trkpt>
      <trkpt lat="45.1483" lon="4.51777">
        <ele>1229</ele>
        <time>2018-04-11T09:45:34Z</time>
      </trkpt>
      <trkpt lat="45.15087" lon="4.5176">
        <ele>1231</ele>
        <time>2018-04-11T09:46:34Z</time>
      </trkpt>
      <trkpt lat="45.15214" lon="4.51768">
        <ele>1223</ele>
        <time>2018-04-11T09:47:34Z</time>
      </trkpt>
      <trkpt lat="45.15393" lon="4.51644">
        <ele>1229</ele>
        <time>2018-04-11T09:48:34Z</time>
      </trkpt>
      <trkpt lat="45.15532" lon="4.51601">
        <ele>1204</ele>
        <time>2018-04-11T09:49:34Z</time>
      </trkpt>
      <trkpt lat="45.15668" lon="4.51683">
        <ele>1187</ele>
        <time>2018-04-11T09:50:34Z</time>
      </trkpt>
      <trkpt lat="45.1585" lon="4.5176">
        <ele>1178</ele>
        <time>2018-04-11T09:51:34Z</time>
      </trkpt>
      <trkpt lat="45.1585" lon="4.51863">
        <ele>1172</ele>
        <time>2018-04-11T09:52:34Z</time>
      </trkpt>
      <trkpt lat="45.1605" lon="4.51944">
        <ele>1167</ele>
        <time>2018-04-11T09:53:34Z</time>
      </trkpt>
      <trkpt lat="45.16298" lon="4.51979">
        <ele>1161</ele>
        <time>2018-04-11T09:54:34Z</time>
      </trkpt>
      <trkpt lat="45.16494" lon="4.52013">
        <ele>1142</ele>
        <time>2018-04-11T09:55:34Z</time>
      </trkpt>
      <trkpt lat="45.16566" lon="4.52196">
        <ele>1137</ele>
        <time>2018-04-11T09:56:34Z</time>
      </trkpt>
      <trkpt lat="45.1661" lon="4.52556">
        <ele>1116</ele>
        <time>2018-04-11T09:57:34Z</time>
      </trkpt>
      <trkpt lat="45.16629" lon="4.52648">
        <ele>1107</ele>
        <time>2018-04-11T09:58:34Z</time>
      </trkpt>
      <trkpt lat="45.16812" lon="4.52688">
        <ele>1098</ele>
        <time>2018-04-11T09:59:34Z</time>
      </trkpt>
      <trkpt lat="45.16911" lon="4.52816">
        <ele>1089</ele>
        <time>2018-04-11T10:00:34Z</time>
      </trkpt>
      <trkpt lat="45.1696" lon="4.53033">
        <ele>1072</ele>
        <time>2018-04-11T10:01:34Z</time>
      </trkpt>
      <trkpt lat="45.17012" lon="4.53119">
        <ele>1068</ele>
        <time>2018-04-11T10:02:34Z</time>
      </trkpt>
      <trkpt lat="45.1711" lon="4.53183">
        <ele>1052</ele>
        <time>2018-04-11T10:03:34Z</time>
      </trkpt>
      <trkpt lat="45.17158" lon="4.53247">
        <ele>1047</ele>
        <time>2018-04-11T10:04:34Z</time>
      </trkpt>
      <trkpt lat="45.17175" lon="4.53251">
        <ele>1045</ele>
        <time>2018-04-11T10:05:34Z</time>
      </trkpt>
      <trkpt lat="45.17216" lon="4.53162">
        <ele>1046</ele>
        <time>2018-04-11T10:06:34Z</time>
      </trkpt>
      <trkpt lat="45.17235" lon="4.52974">
        <ele>1066</ele>
        <time>2018-04-11T10:07:34Z</time>
      </trkpt>
      <trkpt lat="45.17256" lon="4.5284">
        <ele>1060</ele>
        <time>2018-04-11T10:08:34Z</time>
      </trkpt>
      <trkpt lat="45.17297" lon="4.52707">
        <ele>1063</ele>
        <time>2018-04-11T10:09:34Z</time>
      </trkpt>
      <trkpt lat="45.17382" lon="4.52543">
        <ele>1061</ele>
        <time>2018-04-11T10:10:34Z</time>
      </trkpt>
      <trkpt lat="45.17455" lon="4.52473">
        <ele>1039</ele>
        <time>2018-04-11T10:11:34Z</time>
      </trkpt>
      <trkpt lat="45.17416" lon="4.52273">
        <ele>1074</ele>
        <time>2018-04-11T10:12:34Z</time>
      </trkpt>
      <trkpt lat="45.17503" lon="4.52071">
        <ele>1013</ele>
        <time>2018-04-11T10:13:34Z</time>
      </trkpt>
      <trkpt lat="45.17497" lon="4.51971">
        <ele>1015</ele>
        <time>2018-04-11T10:14:34Z</time>
      </trkpt>
      <trkpt lat="45.17403" lon="4.5176">
        <ele>984</ele>
        <time>2018-04-11T10:15:34Z</time>
      </trkpt>
      <trkpt lat="45.17364" lon="4.51609">
        <ele>945</ele>
        <time>2018-04-11T10:16:34Z</time>
      </trkpt>
      <trkpt lat="45.17433" lon="4.51472">
        <ele>905</ele>
        <time>2018-04-11T10:17:34Z</time>
      </trkpt>
      <trkpt lat="45.17481" lon="4.51456">
        <ele>900</ele>
        <time>2018-04-11T10:18:34Z</time>
      </trkpt>
      <trkpt lat="45.17528" lon="4.51485">
        <ele>886</ele>
        <time>2018-04-11T10:19:34Z</time>
      </trkpt>
      <trkpt lat="45.17545" lon="4.51363">
        <ele>865</ele>
        <time>2018-04-11T10:20:34Z</time>
      </trkpt>
      <trkpt lat="45.17517" lon="4.51281">
        <ele>849</ele>
        <time>2018-04-11T10:21:34Z</time>
      </trkpt>
      <trkpt lat="45.1747" lon="4.51181">
        <ele>831</ele>
        <time>2018-04-11T10:22:34Z</time>
      </trkpt>
      <trkpt lat="45.17457" lon="4.51077">
        <ele>796</ele>
        <time>2018-04-11T10:23:34Z</time>
      </trkpt>
      <trkpt lat="45.17474" lon="4.50974">
        <ele>779</ele>
        <time>2018-04-11T10:24:34Z</time>
      </trkpt>
      <trkpt lat="45.17367" lon="4.50995">
        <ele>768</ele>
        <time>2018-04-11T10:25:34Z</time>
      </trkpt>
      <trkpt lat="45.17329" lon="4.51044">
        <ele>780</ele>
        <time>2018-04-11T10:26:34Z</time>
      </trkpt>
      <trkpt lat="45.17314" lon="4.5103">
        <ele>779</ele>
        <time>2018-04-11T10:27:34Z</time>
      </trkpt>
      <trkpt lat="45.17299" lon="4.50983">
        <ele>770</ele>
        <time>2018-04-11T10:28:34Z</time>
      </trkpt>
      <trkpt lat="45.17289" lon="4.50923">
        <ele>767</ele>
        <time>2018-04-11T10:29:34Z</time>
      </trkpt>
      <trkpt lat="45.17284" lon="4.50884">
        <ele>767</ele>
        <time>2018-04-11T10:30:34Z</time>
      </trkpt>
      <trkpt lat="45.1732" lon="4.5086">
        <ele>761</ele>
        <time>2018-04-11T10:31:34Z</time>
      </trkpt>
      <trkpt lat="45.17335" lon="4.50834">
        <ele>749</ele>
        <time>2018-04-11T10:32:34Z</time>
      </trkpt>
      <trkpt lat="45.1745" lon="4.50645">
        <ele>716</ele>
        <time>2018-04-11T10:33:34Z</time>
      </trkpt>
      <trkpt lat="45.17456" lon="4.50624">
        <ele>716</ele>
        <time>2018-04-11T10:34:34Z</time>
      </trkpt>
      <trkpt lat="45.17448" lon="4.50589">
        <ele>718</ele>
        <time>2018-04-11T10:35:34Z</time>
      </trkpt>
      <trkpt lat="45.17455" lon="4.50552">
        <ele>718</ele>
        <time>2018-04-11T10:36:34Z</time>
      </trkpt>
      <trkpt lat="45.17466" lon="4.50513">
        <ele>716</ele>
        <time>2018-04-11T10:37:34Z</time>
      </trkpt>
      <trkpt lat="45.1747" lon="4.50473">
        <ele>714</ele>
        <time>2018-04-11T10:38:34Z</time>
      </trkpt>
      <trkpt lat="45.17471" lon="4.50436">
        <ele>712</ele>
        <time>2018-04-11T10:39:34Z</time>
      </trkpt>
      <trkpt lat="45.17503" lon="4.50391">
        <ele>690</ele>
        <time>2018-04-11T10:40:34Z</time>
      </trkpt>
      <trkpt lat="45.17521" lon="4.50411">
        <ele>691</ele>
        <time>2018-04-11T10:41:34Z</time>
      </trkpt>
      <trkpt lat="45.17533" lon="4.50452">
        <ele>694</ele>
        <time>2018-04-11T10:42:34Z</time>
      </trkpt>
      <trkpt lat="45.17536" lon="4.50481">
        <ele>694</ele>
        <time>2018-04-11T10:43:34Z</time>
      </trkpt>
      <trkpt lat="45.17568" lon="4.50489">
        <ele>689</ele>
        <time>2018-04-11T10:44:34Z</time>
      </trkpt>
      <trkpt lat="45.17575" lon="4.50501">
        <ele>687</ele>
        <time>2018-04-11T10:45:34Z</time>
      </trkpt>
      <trkpt lat="45.17614" lon="4.50485">
        <ele>676</ele>
        <time>2018-04-11T10:46:34Z</time>
      </trkpt>
      <trkpt lat="45.17621" lon="4.50471">
        <ele>674</ele>
        <time>2018-04-11T10:47:34Z</time>
      </trkpt>
      <trkpt lat="45.17619" lon="4.50415">
        <ele>670</ele>
        <time>2018-04-11T10:48:34Z</time>
      </trkpt>
      <trkpt lat="45.17619" lon="4.50399">
        <ele>669</ele>
        <time>2018-04-11T10:49:34Z</time>
      </trkpt>
      <trkpt lat="45.17608" lon="4.50374">
        <ele>668</ele>
        <time>2018-04-11T10:50:34Z</time>
      </trkpt>
      <trkpt lat="45.17572" lon="4.50332">
        <ele>669</ele>
        <time>2018-04-11T10:51:34Z</time>
      </trkpt>
      <trkpt lat="45.17565" lon="4.50317">
        <ele>669</ele>
        <time>2018-04-11T10:52:34Z</time>
      </trkpt>
      <trkpt lat="45.17524" lon="4.50245">
        <ele>660</ele>
        <time>2018-04-11T10:53:34Z</time>
      </trkpt>
      <trkpt lat="45.17482" lon="4.50211">
        <ele>664</ele>
        <time>2018-04-11T10:54:34Z</time>
      </trkpt>
      <trkpt lat="45.17423" lon="4.5015">
        <ele>657</ele>
        <time>2018-04-11T10:55:34Z</time>
      </trkpt>
      <trkpt lat="45.17399" lon="4.5015">
        <ele>663</ele>
        <time>2018-04-11T10:56:34Z</time>
      </trkpt>
      <trkpt lat="45.17389" lon="4.50129">
        <ele>663</ele>
        <time>2018-04-11T10:57:34Z</time>
      </trkpt>
      <trkpt lat="45.17482" lon="4.50062">
        <ele>655</ele>
        <time>2018-04-11T10:58:34Z</time>
      </trkpt>
      <trkpt lat="45.17478" lon="4.4997">
        <ele>663</ele>
        <time>2018-04-11T10:59:34Z</time>
      </trkpt>
      <trkpt lat="45.17479" lon="4.49874">
        <ele>672</ele>
        <time>2018-04-11T11:00:34Z</time>
      </trkpt>
      <trkpt lat="45.17504" lon="4.49739">
        <ele>689</ele>
        <time>2018-04-11T11:01:34Z</time>
      </trkpt>
      <trkpt lat="45.17493" lon="4.49672">
        <ele>687</ele>
        <time>2018-04-11T11:02:34Z</time>
      </trkpt>
      <trkpt lat="45.17506" lon="4.49606">
        <ele>699</ele>
        <time>2018-04-11T11:03:34Z</time>
      </trkpt>
      <trkpt lat="45.17484" lon="4.49605">
        <ele>691</ele>
        <time>2018-04-11T11:04:34Z</time>
      </trkpt>
      <trkpt lat="45.17472" lon="4.49636">
        <ele>690</ele>
        <time>2018-04-11T11:05:34Z</time>
      </trkpt>
      <trkpt lat="45.17469" lon="4.49695">
        <ele>685</ele>
        <time>2018-04-11T11:06:34Z</time>
      </trkpt>
      <trkpt lat="45.17457" lon="4.49717">
        <ele>684</ele>
        <time>2018-04-11T11:07:34Z</time>
      </trkpt>
      <trkpt lat="45.17443" lon="4.49701">
        <ele>684</ele>
        <time>2018-04-11T11:08:34Z</time>
      </trkpt>
      <trkpt lat="45.17429" lon="4.4966">
        <ele>688</ele>
        <time>2018-04-11T11:09:34Z</time>
      </trkpt>
      <trkpt lat="45.17438" lon="4.49642">
        <ele>689</ele>
        <time>2018-04-11T11:10:34Z</time>
      </trkpt>
      <trkpt lat="45.17465" lon="4.49615">
        <ele>691</ele>
        <time>2018-04-11T11:11:34Z</time>
      </trkpt>
      <trkpt lat="45.17484" lon="4.49563">
        <ele>697</ele>
        <time>2018-04-11T11:12:34Z</time>
      </trkpt>
      <trkpt lat="45.17523" lon="4.49476">
        <ele>709</ele>
        <time>2018-04-11T11:13:34Z</time>
      </trkpt>
      <trkpt lat="45.17542" lon="4.49454">
        <ele>711</ele>
        <time>2018-04-11T11:14:34Z</time>
      </trkpt>
      <trkpt lat="45.17572" lon="4.49468">
        <ele>711</ele>
        <time>2018-04-11T11:15:34Z</time>
      </trkpt>
      <trkpt lat="45.1758" lon="4.49491">
        <ele>710</ele>
        <time>2018-04-11T11:16:34Z</time>
      </trkpt>
      <trkpt lat="45.17587" lon="4.49516">
        <ele>717</ele>
        <time>2018-04-11T11:17:34Z</time>
      </trkpt>
      <trkpt lat="45.17598" lon="4.49607">
        <ele>726</ele>
        <time>2018-04-11T11:18:34Z</time>
      </trkpt>
      <trkpt lat="45.17632" lon="4.49716">
        <ele>734</ele>
        <time>2018-04-11T11:19:34Z</time>
      </trkpt>
      <trkpt lat="45.17648" lon="4.4964">
        <ele>737</ele>
        <time>2018-04-11T11:20:34Z</time>
      </trkpt>
      <trkpt lat="45.17659" lon="4.49632">
        <ele>737</ele>
        <time>2018-04-11T11:21:34Z</time>
      </trkpt>
      <trkpt lat="45.17692" lon="4.49642">
        <ele>750</ele>
        <time>2018-04-11T11:22:34Z</time>
      </trkpt>
      <trkpt lat="45.17702" lon="4.49673">
        <ele>757</ele>
        <time>2018-04-11T11:23:34Z</time>
      </trkpt>
      <trkpt lat="45.17696" lon="4.49697">
        <ele>757</ele>
        <time>2018-04-11T11:24:34Z</time>
      </trkpt>
      <trkpt lat="45.17706" lon="4.49716">
        <ele>758</ele>
        <time>2018-04-11T11:25:34Z</time>
      </trkpt>
      <trkpt lat="45.17729" lon="4.49702">
        <ele>760</ele>
        <time>2018-04-11T11:26:34Z</time>
      </trkpt>
      <trkpt lat="45.17752" lon="4.49701">
        <ele>771</ele>
        <time>2018-04-11T11:27:34Z</time>
      </trkpt>
      <trkpt lat="45.1777" lon="4.49716">
        <ele>773</ele>
        <time>2018-04-11T11:28:34Z</time>
      </trkpt>
      <trkpt lat="45.17808" lon="4.49718">
        <ele>777</ele>
        <time>2018-04-11T11:29:34Z</time>
      </trkpt>
      <trkpt lat="45.17845" lon="4.497">
        <ele>789</ele>
        <time>2018-04-11T11:30:34Z</time>
      </trkpt>
      <trkpt lat="45.17875" lon="4.49695">
        <ele>792</ele>
        <time>2018-04-11T11:31:34Z</time>
      </trkpt>
      <trkpt lat="45.17904" lon="4.49682">
        <ele>797</ele>
        <time>2018-04-11T11:32:34Z</time>
      </trkpt>
      <trkpt lat="45.17927" lon="4.49662">
        <ele>809</ele>
        <time>2018-04-11T11:33:34Z</time>
      </trkpt>
      <trkpt lat="45.17942" lon="4.4964">
        <ele>814</ele>
        <time>2018-04-11T11:34:34Z</time>
      </trkpt>
      <trkpt lat="45.17939" lon="4.49681">
        <ele>816</ele>
        <time>2018-04-11T11:35:34Z</time>
      </trkpt>
      <trkpt lat="45.17962" lon="4.49728">
        <ele>821</ele>
        <time>2018-04-11T11:36:34Z</time>
      </trkpt>
      <trkpt lat="45.17987" lon="4.4977">
        <ele>818</ele>
        <time>2018-04-11T11:37:34Z</time>
      </trkpt>
      <trkpt lat="45.18035" lon="4.49841">
        <ele>826</ele>
        <time>2018-04-11T11:38:34Z</time>
      </trkpt>
      <trkpt lat="45.18068" lon="4.49878">
        <ele>831</ele>
        <time>2018-04-11T11:39:34Z</time>
      </trkpt>
      <trkpt lat="45.1809" lon="4.49924">
        <ele>842</ele>
        <time>2018-04-11T11:40:34Z</time>
      </trkpt>
      <trkpt lat="45.18115" lon="4.50016">
        <ele>834</ele>
        <time>2018-04-11T11:41:34Z</time>
      </trkpt>
      <trkpt lat="45.1815" lon="4.5007">
        <ele>836</ele>
        <time>2018-04-11T11:42:34Z</time>
      </trkpt>
      <trkpt lat="45.18178" lon="4.50067">
        <ele>849</ele>
        <time>2018-04-11T11:43:34Z</time>
      </trkpt>
      <trkpt lat="45.18237" lon="4.50021">
        <ele>864</ele>
        <time>2018-04-11T11:44:34Z</time>
      </trkpt>
      <trkpt lat="45.18267" lon="4.50037">
        <ele>875</ele>
        <time>2018-04-11T11:45:34Z</time>
      </trkpt>
      <trkpt lat="45.1832" lon="4.50129">
        <ele>858</ele>
        <time>2018-04-11T11:46:34Z</time>
      </trkpt>
      <trkpt lat="45.18359" lon="4.50178">
        <ele>860</ele>
        <time>2018-04-11T11:47:34Z</time>
      </trkpt>
      <trkpt lat="45.1839" lon="4.50185">
        <ele>864</ele>
        <time>2018-04-11T11:48:34Z</time>
      </trkpt>
      <trkpt lat="45.18427" lon="4.50175">
        <ele>881</ele>
        <time>2018-04-11T11:49:34Z</time>
      </trkpt>
      <trkpt lat="45.18479" lon="4.50183">
        <ele>887</ele>
        <time>2018-04-11T11:50:34Z</time>
      </trkpt>
      <trkpt lat="45.18506" lon="4.50199">
        <ele>903</ele>
        <time>2018-04-11T11:51:34Z</time>
      </trkpt>
      <trkpt lat="45.18513" lon="4.50264">
        <ele>887</ele>
        <time>2018-04-11T11:52:34Z</time>
      </trkpt>
      <trkpt lat="45.18533" lon="4.50305">
        <ele>888</ele>
        <time>2018-04-11T11:53:34Z</time>
      </trkpt>
      <trkpt lat="45.18588" lon="4.50322">
        <ele>900</ele>
        <time>2018-04-11T11:54:34Z</time>
      </trkpt>
      <trkpt lat="45.18684" lon="4.503">
        <ele>914</ele>
        <time>2018-04-11T11:55:34Z</time>
      </trkpt>
      <trkpt lat="45.18629" lon="4.50292">
        <ele>910</ele>
        <time>2018-04-11T11:56:34Z</time>
      </trkpt>
      <trkpt lat="45.18606" lon="4.50284">
        <ele>910</ele>
        <time>2018-04-11T11:57:34Z</time>
      </trkpt>
      <trkpt lat="45.18575" lon="4.50266">
        <ele>903</ele>
        <time>2018-04-11T11:58:34Z</time>
      </trkpt>
      <trkpt lat="45.18572" lon="4.5019">
        <ele>917</ele>
        <time>2018-04-11T11:59:34Z</time>
      </trkpt>
      <trkpt lat="45.18568" lon="4.50142">
        <ele>930</ele>
        <time>2018-04-11T12:00:34Z</time>
      </trkpt>
      <trkpt lat="45.18548" lon="4.50087">
        <ele>934</ele>
        <time>2018-04-11T12:01:34Z</time>
      </trkpt>
      <trkpt lat="45.18477" lon="4.50034">
        <ele>942</ele>
        <time>2018-04-11T12:02:34Z</time>
      </trkpt>
      <trkpt lat="45.18398" lon="4.49946">
        <ele>945</ele>
        <time>2018-04-11T12:03:34Z</time>
      </trkpt>
      <trkpt lat="45.18321" lon="4.49809">
        <ele>959</ele>
        <time>2018-04-11T12:04:34Z</time>
      </trkpt>
      <trkpt lat="45.18276" lon="4.49747">
        <ele>961</ele>
        <time>2018-04-11T12:05:34Z</time>
      </trkpt>
      <trkpt lat="45.18261" lon="4.497">
        <ele>961</ele>
        <time>2018-04-11T12:06:34Z</time>
      </trkpt>
      <trkpt lat="45.18307" lon="4.49617">
        <ele>961</ele>
        <time>2018-04-11T12:07:34Z</time>
      </trkpt>
      <trkpt lat="45.18677" lon="4.49138">
        <ele>1025</ele>
        <time>2018-04-11T12:08:34Z</time>
      </trkpt>
      <trkpt lat="45.18814" lon="4.48947">
        <ele>1036</ele>
        <time>2018-04-11T12:09:34Z</time>
      </trkpt>
      <trkpt lat="45.18876" lon="4.48822">
        <ele>1051</ele>
        <time>2018-04-11T12:10:34Z</time>
      </trkpt>
      <trkpt lat="45.18912" lon="4.48679">
        <ele>1064</ele>
        <time>2018-04-11T12:11:34Z</time>
      </trkpt>
      <trkpt lat="45.18881" lon="4.48665">
        <ele>1076</ele>
        <time>2018-04-11T12:12:34Z</time>
      </trkpt>
      <trkpt lat="45.18748" lon="4.48671">
        <ele>1060</ele>
        <time>2018-04-11T12:13:34Z</time>
      </trkpt>
      <trkpt lat="45.18606" lon="4.48638">
        <ele>1077</ele>
        <time>2018-04-11T12:14:34Z</time>
      </trkpt>
      <trkpt lat="45.18721" lon="4.48613">
        <ele>1082</ele>
        <time>2018-04-11T12:15:34Z</time>
      </trkpt>
      <trkpt lat="45.18804" lon="4.48607">
        <ele>1086</ele>
        <time>2018-04-11T12:16:34Z</time>
      </trkpt>
      <trkpt lat="45.18869" lon="4.48565">
        <ele>1109</ele>
        <time>2018-04-11T12:17:34Z</time>
      </trkpt>
      <trkpt lat="45.18911" lon="4.4852">
        <ele>1118</ele>
        <time>2018-04-11T12:18:34Z</time>
      </trkpt>
      <trkpt lat="45.18972" lon="4.48469">
        <ele>1133</ele>
        <time>2018-04-11T12:19:34Z</time>
      </trkpt>
      <trkpt lat="45.18997" lon="4.48414">
        <ele>1146</ele>
        <time>2018-04-11T12:20:34Z</time>
      </trkpt>
      <trkpt lat="45.19019" lon="4.48407">
        <ele>1155</ele>
        <time>2018-04-11T12:21:34Z</time>
      </trkpt>
      <trkpt lat="45.19036" lon="4.48417">
        <ele>1144</ele>
        <time>2018-04-11T12:22:34Z</time>
      </trkpt>
      <trkpt lat="45.19114" lon="4.48464">
        <ele>1167</ele>
        <time>2018-04-11T12:23:34Z</time>
      </trkpt>
      <trkpt lat="45.19124" lon="4.4849">
        <ele>1168</ele>
        <time>2018-04-11T12:24:34Z</time>
      </trkpt>
      <trkpt lat="45.19159" lon="4.48596">
        <ele>1172</ele>
        <time>2018-04-11T12:25:34Z</time>
      </trkpt>
      <trkpt lat="45.19196" lon="4.48811">
        <ele>1192</ele>
        <time>2018-04-11T12:26:34Z</time>
      </trkpt>
      <trkpt lat="45.1975" lon="4.48413">
        <ele>1276</ele>
        <time>2018-04-11T12:27:34Z</time>
      </trkpt>
      <trkpt lat="45.19883" lon="4.485">
        <ele>1266</ele>
        <time>2018-04-11T12:28:34Z</time>
      </trkpt>
      <trkpt lat="45.20052" lon="4.48291">
        <ele>1317</ele>
        <time>2018-04-11T12:29:34Z</time>
      </trkpt>
      <trkpt lat="45.20264" lon="4.48235">
        <ele>1319</ele>
        <time>2018-04-11T12:30:34Z</time>
      </trkpt>
      <trkpt lat="45.20324" lon="4.48119">
        <ele>1317</ele>
        <time>2018-04-11T12:31:34Z</time>
      </trkpt>
      <trkpt lat="45.20242" lon="4.48056">
        <ele>1322</ele>
        <time>2018-04-11T12:32:34Z</time>
      </trkpt>
      <trkpt lat="45.20109" lon="4.47936">
        <ele>1328</ele>
        <time>2018-04-11T12:33:34Z</time>
      </trkpt>
      <trkpt lat="45.20024" lon="4.47996">
        <ele>1336</ele>
        <time>2018-04-11T12:34:34Z</time>
      </trkpt>
      <trkpt lat="45.19952" lon="4.48164">
        <ele>1346</ele>
        <time>2018-04-11T12:35:34Z</time>
      </trkpt>
      <trkpt lat="45.19837" lon="4.48181">
        <ele>1351</ele>
        <time>2018-04-11T12:36:34Z</time>
      </trkpt>
      <trkpt lat="45.1975" lon="4.48168">
        <ele>1363</ele>
        <time>2018-04-11T12:37:34Z</time>
      </trkpt>
      <trkpt lat="45.19625" lon="4.48181">
        <ele>1376</ele>
        <time>2018-04-11T12:38:34Z</time>
      </trkpt>
      <trkpt lat="45.19609" lon="4.48159">
        <ele>1384</ele>
        <time>2018-04-11T12:39:34Z</time>
      </trkpt>
      <trkpt lat="45.19576" lon="4.48115">
        <ele>1387</ele>
        <time>2018-04-11T12:40:34Z</time>
      </trkpt>
      <trkpt lat="45.19556" lon="4.48054">
        <ele>1387</ele>
        <time>2018-04-11T12:41:34Z</time>
      </trkpt>
      <trkpt lat="45.19568" lon="4.48011">
        <ele>1387</ele>
        <time>2018-04-11T12:42:34Z</time>
      </trkpt>
      <trkpt lat="45.19614" lon="4.4794">
        <ele>1381</ele>
        <time>2018-04-11T12:43:34Z</time>
      </trkpt>
      <trkpt lat="45.19927" lon="4.47686">
        <ele>1341</ele>
        <time>2018-04-11T12:44:34Z</time>
      </trkpt>
      <trkpt lat="45.20021" lon="4.47626">
        <ele>1337</ele>
        <time>2018-04-11T12:45:34Z</time>
      </trkpt>
      <trkpt lat="45.20078" lon="4.47688">
        <ele>1335</ele>
        <time>2018-04-11T12:46:34Z</time>
      </trkpt>
      <trkpt lat="45.20139" lon="4.4776">
        <ele>1324</ele>
        <time>2018-04-11T12:47:34Z</time>
      </trkpt>
      <trkpt lat="45.20217" lon="4.4781">
        <ele>1316</ele>
        <time>2018-04-11T12:48:34Z</time>
      </trkpt>
      <trkpt lat="45.20297" lon="4.47838">
        <ele>1308</ele>
        <time>2018-04-11T12:49:34Z</time>
      </trkpt>
      <trkpt lat="45.20386" lon="4.47883">
        <ele>1300</ele>
        <time>2018-04-11T12:50:34Z</time>
      </trkpt>
      <trkpt lat="45.20522" lon="4.47843">
        <ele>1291</ele>
        <time>2018-04-11T12:51:34Z</time>
      </trkpt>
      <trkpt lat="45.20696" lon="4.47753">
        <ele>1282</ele>
        <time>2018-04-11T12:52:34Z</time>
      </trkpt>
      <trkpt lat="45.20857" lon="4.47691">
        <ele>1281</ele>
        <time>2018-04-11T12:53:34Z</time>
      </trkpt>
      <trkpt lat="45.2109" lon="4.4766">
        <ele>1288</ele>
        <time>2018-04-11T12:54:34Z</time>
      </trkpt>
      <trkpt lat="45.21204" lon="4.4767">
        <ele>1285</ele>
        <time>2018-04-11T12:55:34Z</time>
      </trkpt>
      <trkpt lat="45.21276" lon="4.47715">
        <ele>1281</ele>
        <time>2018-04-11T12:56:34Z</time>
      </trkpt>
      <trkpt lat="45.21368" lon="4.47776">
        <ele>1277</ele>
        <time>2018-04-11T12:57:34Z</time>
      </trkpt>
      <trkpt lat="45.2146" lon="4.47864">
        <ele>1268</ele>
        <time>2018-04-11T12:58:34Z</time>
      </trkpt>
      <trkpt lat="45.21512" lon="4.48003">
        <ele>1258</ele>
        <time>2018-04-11T12:59:34Z</time>
      </trkpt>
      <trkpt lat="45.21605" lon="4.48147">
        <ele>1252</ele>
        <time>2018-04-11T13:00:34Z</time>
      </trkpt>
      <trkpt lat="45.21677" lon="4.48111">
        <ele>1248</ele>
        <time>2018-04-11T13:01:34Z</time>
      </trkpt>
      <trkpt lat="45.21894" lon="4.48034">
        <ele>1219</ele>
        <time>2018-04-11T13:02:34Z</time>
      </trkpt>
      <trkpt lat="45.21952" lon="4.47982">
        <ele>1206</ele>
        <time>2018-04-11T13:03:34Z</time>
      </trkpt>
      <trkpt lat="45.21994" lon="4.47918">
        <ele>1194</ele>
        <time>2018-04-11T13:04:34Z</time>
      </trkpt>
      <trkpt lat="45.22086" lon="4.47782">
        <ele>1170</ele>
        <time>2018-04-11T13:05:34Z</time>
      </trkpt>
      <trkpt lat="45.22133" lon="4.47734">
        <ele>1162</ele>
        <time>2018-04-11T13:06:34Z</time>
      </trkpt>
      <trkpt lat="45.22192" lon="4.47683">
        <ele>1148</ele>
        <time>2018-04-11T13:07:34Z</time>
      </trkpt>
      <trkpt lat="45.2219" lon="4.47529">
        <ele>1148</ele>
        <time>2018-04-11T13:08:34Z</time>
      </trkpt>
      <trkpt lat="45.22187" lon="4.47477">
        <ele>1140</ele>
        <time>2018-04-11T13:09:34Z</time>
      </trkpt>
      <trkpt lat="45.22193" lon="4.47428">
        <ele>1137</ele>
        <time>2018-04-11T13:10:34Z</time>
      </trkpt>
      <trkpt lat="45.22216" lon="4.47363">
        <ele>1130</ele>
        <time>2018-04-11T13:11:34Z</time>
      </trkpt>
      <trkpt lat="45.22231" lon="4.47271">
        <ele>1128</ele>
        <time>2018-04-11T13:12:34Z</time>
      </trkpt>
      <trkpt lat="45.22239" lon="4.47117">
        <ele>1120</ele>
        <time>2018-04-11T13:13:34Z</time>
      </trkpt>
      <trkpt lat="45.22229" lon="4.47055">
        <ele>1114</ele>
        <time>2018-04-11T13:14:34Z</time>
      </trkpt>
      <trkpt lat="45.22216" lon="4.46866">
        <ele>1108</ele>
        <time>2018-04-11T13:15:34Z</time>
      </trkpt>
      <trkpt lat="45.22202" lon="4.46801">
        <ele>1106</ele>
        <time>2018-04-11T13:16:34Z</time>
      </trkpt>
      <trkpt lat="45.22185" lon="4.46742">
        <ele>1103</ele>
        <time>2018-04-11T13:17:34Z</time>
      </trkpt>
      <trkpt lat="45.22178" lon="4.46657">
        <ele>1103</ele>
        <time>2018-04-11T13:18:34Z</time>
      </trkpt>
      <trkpt lat="45.2216" lon="4.4652">
        <ele>1101</ele>
        <time>2018-04-11T13:19:34Z</time>
      </trkpt>
      <trkpt lat="45.2216" lon="4.4648">
        <ele>1102</ele>
        <time>2018-04-11T13:20:34Z</time>
      </trkpt>
      <trkpt lat="45.22137" lon="4.4638">
        <ele>1107</ele>
        <time>2018-04-11T13:21:34Z</time>
      </trkpt>
      <trkpt lat="45.22117" lon="4.46284">
        <ele>1109</ele>
        <time>2018-04-11T13:22:34Z</time>
      </trkpt>
      <trkpt lat="45.2212" lon="4.46263">
        <ele>1109</ele>
        <time>2018-04-11T13:23:34Z</time>
      </trkpt>
      <trkpt lat="45.22124" lon="4.4623">
        <ele>1106</ele>
        <time>2018-04-11T13:24:34Z</time>
      </trkpt>
      <trkpt lat="45.22141" lon="4.462">
        <ele>1106</ele>
        <time>2018-04-11T13:25:34Z</time>
      </trkpt>
      <trkpt lat="45.22157" lon="4.46177">
        <ele>1106</ele>
        <time>2018-04-11T13:26:34Z</time>
      </trkpt>
      <trkpt lat="45.22254" lon="4.4616">
        <ele>1108</ele>
        <time>2018-04-11T13:27:34Z</time>
      </trkpt>
      <trkpt lat="45.22335" lon="4.46162">
        <ele>1107</ele>
        <time>2018-04-11T13:28:34Z</time>
      </trkpt>
      <trkpt lat="45.22373" lon="4.46145">
        <ele>1100</ele>
        <time>2018-04-11T13:29:34Z</time>
      </trkpt>
      <trkpt lat="45.22497" lon="4.46126">
        <ele>1096</ele>
        <time>2018-04-11T13:30:34Z</time>
      </trkpt>
      <trkpt lat="45.22572" lon="4.46124">
        <ele>1094</ele>
        <time>2018-04-11T13:31:34Z</time>
      </trkpt>
      <trkpt lat="45.22583" lon="4.46107">
        <ele>1094</ele>
        <time>2018-04-11T13:32:34Z</time>
      </trkpt>
      <trkpt lat="45.22547" lon="4.4607">
        <ele>1097</ele>
        <time>2018-04-11T13:33:34Z</time>
      </trkpt>
      <trkpt lat="45.22465" lon="4.45958">
        <ele>1104</ele>
        <time>2018-04-11T13:34:34Z</time>
      </trkpt>
      <trkpt lat="45.22432" lon="4.4591">
        <ele>1118</ele>
        <time>2018-04-11T13:35:34Z</time>
      </trkpt>
      <trkpt lat="45.22383" lon="4.45874">
        <ele>1114</ele>
        <time>2018-04-11T13:36:34Z</time>
      </trkpt>
      <trkpt lat="45.22374" lon="4.45855">
        <ele>1116</ele>
        <time>2018-04-11T13:37:34Z</time>
      </trkpt>
      <trkpt lat="45.22373" lon="4.45756">
        <ele>1132</ele>
        <time>2018-04-11T13:38:34Z</time>
      </trkpt>
      <trkpt lat="45.22372" lon="4.45735">
        <ele>1140</ele>
        <time>2018-04-11T13:39:34Z</time>
      </trkpt>
      <trkpt lat="45.22322" lon="4.45611">
        <ele>1139</ele>
        <time>2018-04-11T13:40:34Z</time>
      </trkpt>
      <trkpt lat="45.22312" lon="4.45564">
        <ele>1142</ele>
        <time>2018-04-11T13:41:34Z</time>
      </trkpt>
      <trkpt lat="45.22241" lon="4.4551">
        <ele>1137</ele>
        <time>2018-04-11T13:42:34Z</time>
      </trkpt>
      <trkpt lat="45.22236" lon="4.45534">
        <ele>1135</ele>
        <time>2018-04-11T13:43:34Z</time>
      </trkpt>
    </trkseg>
  </trk>
</gpx>